createdAt,value
2019-04-11T00:02:02.603Z,8.57
2019-04-11T00:04:32.308Z,10.33
2019-04-11T00:07:01.274Z,8.80
2019-04-11T00:09:30.446Z,10.03
2019-04-11T00:11:59.958Z,9.53
2019-04-11T00:14:29.641Z,10.73
2019-04-11T00:16:58.650Z,12.20
2019-04-11T00:19:27.632Z,10.33
2019-04-11T00:21:57.304Z,12.03
2019-04-11T00:24:27.160Z,16.47
2019-04-11T00:26:57.004Z,8.97
2019-04-11T00:29:26.138Z,11.77
2019-04-11T00:31:55.101Z,9.63
2019-04-11T00:34:23.893Z,10.27
2019-04-11T00:36:52.823Z,15.80
2019-04-11T00:39:21.631Z,9.90
2019-04-11T00:41:50.469Z,10.20
2019-04-11T00:44:19.276Z,9.83
2019-04-11T00:46:48.862Z,11.17
2019-04-11T00:49:18.670Z,8.43
2019-04-11T00:51:47.772Z,10.37
2019-04-11T00:54:16.732Z,11.67
2019-04-11T00:56:45.714Z,12.20
2019-04-11T00:59:14.616Z,11.63
2019-04-11T01:01:43.521Z,10.37
2019-04-11T01:04:12.445Z,12.03
2019-04-11T01:06:41.249Z,9.67
2019-04-11T01:09:10.996Z,12.17
2019-04-11T01:11:40.377Z,11.23
2019-04-11T01:14:09.843Z,11.30
2019-04-11T01:16:46.841Z,12.90
2019-04-11T01:19:16.350Z,12.77
2019-04-11T01:21:45.506Z,12.13
2019-04-11T01:24:15.562Z,13.90
2019-04-11T01:26:45.503Z,13.13
2019-04-11T01:29:15.452Z,9.67
2019-04-11T01:31:46.142Z,12.17
2019-04-11T01:34:16.191Z,14.87
2019-04-11T01:36:45.197Z,11.13
2019-04-11T01:39:32.721Z,10.20
2019-04-11T01:42:02.673Z,11.63
2019-04-11T01:44:32.504Z,11.17
2019-04-11T01:47:02.538Z,12.17
2019-04-11T01:49:32.344Z,12.57
2019-04-11T01:52:02.442Z,12.90
2019-04-11T01:54:32.425Z,11.80
2019-04-11T01:57:01.446Z,10.70
2019-04-11T01:59:31.170Z,11.40
2019-04-11T02:02:15.738Z,14.93
2019-04-11T02:04:54.366Z,10.13
2019-04-11T02:07:23.364Z,12.47
2019-04-11T02:09:52.602Z,14.23
2019-04-11T02:12:22.491Z,15.70
2019-04-11T02:14:52.432Z,10.37
2019-04-11T02:17:22.309Z,14.20
2019-04-11T02:19:52.322Z,16.00
2019-04-11T02:22:38.901Z,10.73
2019-04-11T02:25:24.725Z,12.53
2019-04-11T02:27:53.889Z,11.63
2019-04-11T02:30:23.063Z,13.07
2019-04-11T02:32:53.587Z,11.80
2019-04-11T02:35:24.145Z,13.93
2019-04-11T02:37:54.747Z,10.97
2019-04-11T02:40:24.565Z,15.07
2019-04-11T02:42:54.860Z,11.10
2019-04-11T02:45:36.727Z,13.43
2019-04-11T02:47:56.420Z,11.67
2019-04-11T02:50:26.469Z,12.63
2019-04-11T02:52:56.666Z,14.60
2019-04-11T02:55:27.573Z,14.37
2019-04-11T02:57:57.443Z,12.10
2019-04-11T03:00:28.800Z,12.87
2019-04-11T03:02:59.351Z,13.73
2019-04-11T03:05:28.938Z,12.87
2019-04-11T03:08:00.561Z,11.33
2019-04-11T03:10:31.272Z,12.60
2019-04-11T03:13:00.890Z,15.60
2019-04-11T03:15:43.344Z,10.87
2019-04-11T03:18:04.462Z,13.27
2019-04-11T03:20:39.272Z,12.90
2019-04-11T03:23:07.431Z,11.03
2019-04-11T03:25:34.161Z,10.43
2019-04-11T03:28:03.167Z,11.47
2019-04-11T03:30:48.941Z,10.33
2019-04-11T03:36:21.625Z,12.20
2019-04-11T03:38:29.288Z,11.77
2019-04-11T03:40:52.091Z,14.75
2019-04-11T03:43:22.750Z,14.13
2019-04-11T03:46:02.056Z,16.70
2019-04-11T03:48:23.541Z,10.83
2019-04-11T03:50:39.948Z,15.80
2019-04-11T03:53:11.434Z,14.07
2019-04-11T03:55:40.203Z,16.77
2019-04-11T03:58:09.390Z,11.40
2019-04-11T04:00:42.876Z,14.30
2019-04-11T04:03:11.284Z,15.33
2019-04-11T04:05:41.977Z,13.00
2019-04-11T04:08:12.991Z,11.07
2019-04-11T04:11:01.354Z,11.43
2019-04-11T04:13:31.973Z,16.53
2019-04-11T04:16:18.637Z,15.47
2019-04-11T04:18:54.173Z,11.67
2019-04-11T04:21:59.185Z,14.00
2019-04-11T04:24:34.109Z,12.07
2019-04-11T04:27:01.872Z,14.33
2019-04-11T04:29:32.321Z,16.43
2019-04-11T04:32:02.890Z,14.50
2019-04-11T04:34:33.593Z,14.30
2019-04-11T04:37:03.617Z,13.53
2019-04-11T04:39:34.516Z,11.83
2019-04-11T04:42:11.387Z,14.63
2019-04-11T04:44:34.944Z,17.47
2019-04-11T04:47:15.325Z,14.20
2019-04-11T04:49:36.177Z,15.30
2019-04-11T04:52:06.095Z,13.07
2019-04-11T04:54:36.473Z,14.23
2019-04-11T04:57:07.156Z,18.03
2019-04-11T04:59:37.750Z,16.00
2019-04-11T05:02:08.792Z,13.37
2019-04-11T05:04:38.299Z,16.70
2019-04-11T05:07:09.534Z,15.17
2019-04-11T05:09:40.305Z,13.10
2019-04-11T05:12:09.857Z,13.63
2019-04-11T05:14:39.352Z,13.30
2019-04-11T05:17:08.798Z,15.00
2019-04-11T05:19:38.374Z,13.20
2019-04-11T05:22:08.462Z,13.23
2019-04-11T05:24:37.545Z,11.43
2019-04-11T05:27:06.616Z,12.20
2019-04-11T05:29:35.653Z,14.40
2019-04-11T05:32:05.208Z,13.57
2019-04-11T05:34:35.131Z,14.77
2019-04-11T05:37:04.338Z,16.27
2019-04-11T05:39:33.893Z,14.00
2019-04-11T05:42:03.179Z,17.37
2019-04-11T05:44:32.632Z,14.90
2019-04-11T05:47:03.467Z,11.73
2019-04-11T05:49:41.977Z,12.40
2019-04-11T05:52:12.289Z,15.07
2019-04-11T05:54:51.066Z,15.10
2019-04-11T05:57:23.868Z,13.57
2019-04-11T05:59:54.394Z,15.87
2019-04-11T06:02:33.225Z,12.23
2019-04-11T06:05:08.930Z,16.80
2019-04-11T06:07:57.862Z,12.83
2019-04-11T06:10:50.366Z,15.53
2019-04-11T06:13:22.731Z,17.87
2019-04-11T06:15:53.913Z,15.03
2019-04-11T06:18:46.098Z,18.00
2019-04-11T06:21:19.955Z,16.50
2019-04-11T06:24:07.977Z,19.10
2019-04-11T06:27:04.059Z,24.03
2019-04-11T06:29:41.526Z,19.67
2019-04-11T06:32:29.967Z,14.90
2019-04-11T06:35:03.996Z,15.23
2019-04-11T06:37:54.879Z,15.77
2019-04-11T06:40:46.061Z,17.33
2019-04-11T06:43:38.323Z,14.90
2019-04-11T06:46:18.728Z,15.87
2019-04-11T06:49:02.819Z,14.43
2019-04-11T06:51:39.873Z,18.77
2019-04-11T06:54:37.185Z,14.93
2019-04-11T06:57:09.654Z,19.90
2019-04-11T06:59:42.925Z,15.57
2019-04-11T07:02:18.107Z,16.50
2019-04-11T07:04:47.959Z,18.73
2019-04-11T07:07:16.893Z,14.77
2019-04-11T07:10:03.923Z,18.45
2019-04-11T07:12:36.537Z,18.40
2019-04-11T07:15:10.424Z,17.17
2019-04-11T07:17:56.875Z,19.57
2019-04-11T07:20:43.838Z,20.67
2019-04-11T07:23:30.761Z,19.33
2019-04-11T07:26:08.012Z,17.50
2019-04-11T07:28:56.506Z,19.27
2019-04-11T07:31:51.069Z,16.03
2019-04-11T07:34:47.878Z,20.07
2019-04-11T07:37:33.375Z,19.93
2019-04-11T07:40:24.430Z,16.53
2019-04-11T07:43:11.740Z,17.80
2019-04-11T07:45:55.895Z,14.00
2019-04-11T07:48:33.794Z,12.90
2019-04-11T07:51:15.855Z,16.13
2019-04-11T07:53:48.110Z,13.37
2019-04-11T07:56:31.227Z,15.70
2019-04-11T07:59:03.106Z,10.73
2019-04-11T08:02:25.231Z,9.80
2019-04-11T08:05:25.452Z,11.73
2019-04-11T08:08:13.260Z,10.37
2019-04-11T08:10:47.008Z,10.07
2019-04-11T08:13:20.752Z,12.00
2019-04-11T08:16:08.438Z,10.13
2019-04-11T08:18:48.720Z,8.83
2019-04-11T08:21:44.029Z,14.00
2019-04-11T08:24:18.717Z,9.53
2019-04-11T08:27:15.816Z,18.10
2019-04-11T08:29:47.609Z,10.83
2019-04-11T08:32:37.970Z,8.23
2019-04-11T08:35:33.340Z,10.73
2019-04-11T08:38:05.179Z,6.83
2019-04-11T08:40:39.206Z,5.53
2019-04-11T08:43:15.052Z,8.93
2019-04-11T08:45:48.551Z,7.03
2019-04-11T08:48:19.183Z,7.87
2019-04-11T08:50:52.539Z,6.17
2019-04-11T08:53:39.022Z,9.17
2019-04-11T08:56:08.032Z,6.93
2019-04-11T08:59:05.168Z,8.27
2019-04-11T09:01:33.991Z,12.10
2019-04-11T09:04:20.323Z,6.13
2019-04-11T09:06:49.256Z,6.73
2019-04-11T09:09:49.355Z,8.57
2019-04-11T09:12:18.488Z,8.43
2019-04-11T09:15:10.730Z,7.80
2019-04-11T09:17:56.884Z,6.97
2019-04-11T09:20:33.966Z,9.47
2019-04-11T09:23:09.200Z,5.37
2019-04-11T09:25:56.570Z,7.90
2019-04-11T09:28:33.437Z,10.00
2019-04-11T09:31:31.644Z,11.43
2019-04-11T09:34:23.773Z,5.33
2019-04-11T09:37:13.938Z,7.40
2019-04-11T09:40:09.935Z,7.90
2019-04-11T09:42:47.121Z,7.93
2019-04-11T09:45:34.002Z,8.63
2019-04-11T09:48:22.289Z,10.63
2019-04-11T09:51:11.247Z,8.17
2019-04-11T09:53:41.162Z,10.23
2019-04-11T09:56:29.222Z,6.13
2019-04-11T09:59:00.693Z,10.80
2019-04-11T10:01:58.239Z,6.00
2019-04-11T10:04:29.663Z,7.13
2019-04-11T10:07:17.601Z,35.83
2019-04-11T10:10:04.542Z,14.40
2019-04-11T10:12:52.052Z,12.83
2019-04-11T10:15:27.654Z,11.10
2019-04-11T10:18:27.199Z,6.17
2019-04-11T10:20:51.442Z,9.97
2019-04-11T10:23:25.066Z,10.13
2019-04-11T10:26:01.366Z,5.73
2019-04-11T10:28:58.242Z,9.03
2019-04-11T10:31:27.117Z,6.63
2019-04-11T10:34:13.340Z,5.33
2019-04-11T10:36:49.622Z,7.43
2019-04-11T10:39:37.446Z,6.37
2019-04-11T10:42:10.451Z,5.83
2019-04-11T10:45:04.639Z,7.33
2019-04-11T10:47:34.220Z,6.10
2019-04-11T10:50:37.125Z,5.90
2019-04-11T10:53:06.861Z,5.10
2019-04-11T10:56:10.719Z,6.37
2019-04-11T10:58:45.858Z,7.43
2019-04-11T11:01:36.965Z,11.07
2019-04-11T11:04:31.077Z,7.50
2019-04-11T11:07:10.197Z,7.00
2019-04-11T11:09:59.128Z,8.30
2019-04-11T11:12:38.066Z,6.00
2019-04-11T11:15:09.948Z,5.47
2019-04-11T11:18:32.129Z,6.03
2019-04-11T11:21:02.608Z,6.60
2019-04-11T11:23:50.800Z,12.77
2019-04-11T11:26:32.120Z,11.63
2019-04-11T11:29:20.512Z,6.83
2019-04-11T11:32:07.632Z,9.10
2019-04-11T11:34:41.109Z,5.40
2019-04-11T11:37:35.415Z,5.50
2019-04-11T11:40:23.924Z,4.57
2019-04-11T11:43:12.680Z,5.17
2019-04-11T11:46:00.814Z,10.60
2019-04-11T11:48:54.059Z,6.70
2019-04-11T11:51:41.507Z,8.37
2019-04-11T11:54:24.001Z,7.57
2019-04-11T11:56:56.069Z,4.43
2019-04-11T11:59:30.333Z,7.73
2019-04-11T12:02:21.131Z,15.30
2019-04-11T12:05:00.867Z,7.80
2019-04-11T12:07:38.302Z,15.03
2019-04-11T12:10:28.046Z,4.93
2019-04-11T12:13:14.883Z,8.53
2019-04-11T12:16:01.585Z,4.20
2019-04-11T12:18:46.540Z,5.83
2019-04-11T12:21:13.601Z,6.10
2019-04-11T12:24:17.444Z,8.40
2019-04-11T12:26:54.404Z,8.70
2019-04-11T12:29:45.528Z,6.20
2019-04-11T12:32:14.816Z,6.33
2019-04-11T12:35:06.101Z,5.00
2019-04-11T12:37:41.234Z,6.30
2019-04-11T12:40:28.313Z,6.27
2019-04-11T12:42:58.677Z,6.17
2019-04-11T12:45:48.609Z,4.20
2019-04-11T12:48:17.551Z,3.93
2019-04-11T12:51:04.243Z,5.50
2019-04-11T12:53:33.213Z,9.37
2019-04-11T12:56:33.406Z,4.83
2019-04-11T12:59:11.550Z,8.50
2019-04-11T13:02:11.365Z,8.73
2019-04-11T13:04:45.301Z,5.63
2019-04-11T13:07:33.461Z,6.40
2019-04-11T13:10:31.014Z,4.17
2019-04-11T13:13:19.020Z,5.50
2019-04-11T13:15:57.769Z,7.30
2019-04-11T13:19:03.600Z,5.17
2019-04-11T13:21:41.288Z,5.83
2019-04-11T13:24:27.947Z,4.93
2019-04-11T13:27:17.209Z,7.40
2019-04-11T13:30:05.165Z,5.10
2019-04-11T13:32:46.849Z,4.20
2019-04-11T13:35:43.958Z,7.83
2019-04-11T13:38:21.525Z,7.00
2019-04-11T13:41:15.633Z,6.70
2019-04-11T13:44:12.714Z,5.50
2019-04-11T13:47:06.559Z,5.10
2019-04-11T13:49:49.261Z,4.57
2019-04-11T13:52:32.580Z,4.67
2019-04-11T13:55:19.264Z,5.00
2019-04-11T13:58:07.153Z,4.40
2019-04-11T14:00:47.083Z,4.53
2019-04-11T14:03:44.283Z,6.50
2019-04-11T14:06:39.263Z,4.53
2019-04-11T14:09:16.533Z,5.87
2019-04-11T14:11:47.803Z,6.90
2019-04-11T14:14:25.531Z,6.70
2019-04-11T14:17:01.132Z,5.03
2019-04-11T14:19:58.047Z,6.50
2019-04-11T14:22:31.353Z,4.83
2019-04-11T14:25:18.054Z,5.40
2019-04-11T14:27:48.057Z,4.77
2019-04-11T14:30:36.052Z,6.10
2019-04-11T14:33:05.290Z,7.13
2019-04-11T14:35:53.363Z,4.67
2019-04-11T14:38:23.288Z,7.43
2019-04-11T14:41:16.990Z,5.63
2019-04-11T14:43:53.814Z,4.37
2019-04-11T14:46:52.290Z,6.93
2019-04-11T14:49:21.354Z,3.47
2019-04-11T14:52:27.525Z,9.23
2019-04-11T14:54:59.172Z,4.93
2019-04-11T14:57:56.026Z,7.70
2019-04-11T15:00:39.729Z,6.40
2019-04-11T15:03:26.618Z,5.03
2019-04-11T15:06:15.280Z,7.03
2019-04-11T15:09:06.368Z,4.60
2019-04-11T15:11:50.276Z,5.80
2019-04-11T15:14:36.773Z,6.13
2019-04-11T15:17:34.029Z,5.80
2019-04-11T15:20:21.197Z,6.83
2019-04-11T15:23:00.312Z,6.00
2019-04-11T15:25:41.316Z,4.90
2019-04-11T15:28:35.325Z,4.57
2019-04-11T15:31:18.522Z,5.03
2019-04-11T15:34:13.823Z,5.10
2019-04-11T15:36:47.626Z,5.63
2019-04-11T15:39:44.040Z,6.03
2019-04-11T15:42:09.280Z,6.27
2019-04-11T15:45:13.338Z,4.50
2019-04-11T15:47:46.743Z,4.50
2019-04-11T15:50:34.170Z,5.67
2019-04-11T15:53:06.557Z,5.50
2019-04-11T15:55:58.894Z,4.53
2019-04-11T15:58:33.394Z,5.20
2019-04-11T16:01:18.424Z,6.30
2019-04-11T16:03:52.437Z,6.53
2019-04-11T16:06:44.806Z,5.33
2019-04-11T16:09:17.985Z,5.20
2019-04-11T16:11:54.525Z,4.00
2019-04-11T16:14:29.333Z,7.10
2019-04-11T16:17:35.601Z,5.73
2019-04-11T16:20:12.849Z,5.00
2019-04-11T16:22:57.757Z,6.23
2019-04-11T16:25:28.946Z,8.90
2019-04-11T16:28:14.914Z,5.03
2019-04-11T16:30:52.155Z,7.30
2019-04-11T16:33:28.158Z,4.20
2019-04-11T16:36:09.651Z,5.70
2019-04-11T16:38:44.156Z,5.07
2019-04-11T16:41:32.049Z,4.93
2019-04-11T16:44:03.613Z,5.30
2019-04-11T16:47:03.492Z,3.50
2019-04-11T16:49:32.338Z,5.40
2019-04-11T16:52:01.172Z,5.00
2019-04-11T16:54:30.112Z,4.87
2019-04-11T16:56:59.031Z,8.37
2019-04-11T16:59:27.868Z,6.77
2019-04-11T17:01:58.346Z,4.77
2019-04-11T17:04:27.307Z,4.40
2019-04-11T17:07:05.309Z,4.30
2019-04-11T17:09:43.342Z,4.83
2019-04-11T17:12:12.324Z,4.57
2019-04-11T17:14:41.166Z,5.27
2019-04-11T17:17:15.109Z,5.50
2019-04-11T17:19:40.730Z,3.20
2019-04-11T17:22:09.619Z,4.83
2019-04-11T17:24:38.577Z,3.17
2019-04-11T17:27:07.501Z,4.97
2019-04-11T17:29:36.345Z,5.73
2019-04-11T17:32:05.602Z,5.97
2019-04-11T17:34:34.966Z,4.47
2019-04-11T17:37:03.850Z,5.10
2019-04-11T17:39:36.621Z,3.73
2019-04-11T17:42:03.529Z,6.43
2019-04-11T17:44:32.416Z,3.37
2019-04-11T17:47:01.317Z,4.20
2019-04-11T17:49:30.337Z,3.00
2019-04-11T17:51:59.193Z,4.47
2019-04-11T17:54:28.120Z,6.00
2019-04-11T17:56:58.978Z,3.93
2019-04-11T17:59:28.875Z,5.50
2019-04-11T18:01:58.000Z,4.00
2019-04-11T18:04:26.871Z,5.10
2019-04-11T18:06:55.692Z,4.40
2019-04-11T18:09:26.309Z,4.83
2019-04-11T18:11:56.132Z,6.27
2019-04-11T18:14:25.775Z,5.07
2019-04-11T18:16:55.852Z,5.00
2019-04-11T18:19:24.749Z,5.27
2019-04-11T18:21:53.665Z,6.47
2019-04-11T18:24:22.502Z,8.07
2019-04-11T18:26:52.531Z,5.07
2019-04-11T18:29:22.948Z,6.80
2019-04-11T18:31:52.179Z,7.17
2019-04-11T18:34:21.064Z,7.20
2019-04-11T18:36:52.924Z,5.70
2019-04-11T18:39:21.814Z,6.20
2019-04-11T18:41:50.877Z,5.67
2019-04-11T18:44:19.772Z,5.43
2019-04-11T18:46:48.826Z,7.23
2019-04-11T18:49:22.345Z,6.17
2019-04-11T18:51:53.102Z,6.77
2019-04-11T18:54:22.222Z,5.87
2019-04-11T18:56:51.435Z,5.37
2019-04-11T18:59:20.634Z,7.50
2019-04-11T19:01:49.776Z,6.37
2019-04-11T19:04:18.640Z,5.90
2019-04-11T19:06:47.686Z,5.30
2019-04-11T19:09:16.797Z,5.63
2019-04-11T19:11:46.438Z,6.37
2019-04-11T19:14:16.654Z,8.00
2019-04-11T19:16:46.021Z,6.67
2019-04-11T19:19:18.531Z,5.93
2019-04-11T19:21:50.684Z,5.00
2019-04-11T19:24:17.072Z,4.43
2019-04-11T19:26:46.873Z,5.07
2019-04-11T19:29:16.060Z,4.70
2019-04-11T19:31:44.985Z,6.17
2019-04-11T19:34:14.244Z,4.83
2019-04-11T19:36:43.234Z,5.67
2019-04-11T19:39:13.903Z,5.10
2019-04-11T19:41:47.817Z,5.00
2019-04-11T19:44:14.152Z,6.03
2019-04-11T19:46:51.040Z,5.80
2019-04-11T19:49:19.715Z,4.50
2019-04-11T19:51:50.768Z,5.75
2019-04-11T19:54:21.100Z,4.00
2019-04-11T19:56:58.114Z,5.03
2019-04-11T19:59:27.372Z,5.37
2019-04-11T20:01:56.430Z,9.77
2019-04-11T20:04:25.360Z,4.30
2019-04-11T20:06:54.255Z,4.70
2019-04-11T20:09:23.253Z,3.40
2019-04-11T20:11:52.238Z,3.90
2019-04-11T20:14:21.149Z,4.00
2019-04-11T20:16:52.049Z,4.67
2019-04-11T20:19:20.703Z,4.23
2019-04-11T20:21:49.686Z,3.80
2019-04-11T20:24:18.686Z,5.07
2019-04-11T20:26:49.773Z,4.10
2019-04-11T20:29:22.094Z,3.27
2019-04-11T20:31:51.133Z,4.00
2019-04-11T20:34:27.489Z,3.83
2019-04-11T20:36:50.648Z,4.33
2019-04-11T20:39:19.548Z,3.40
2019-04-11T20:41:48.444Z,6.57
2019-04-11T20:44:17.710Z,3.50
2019-04-11T20:46:46.694Z,4.17
2019-04-11T20:49:15.657Z,7.57
2019-04-11T20:51:44.479Z,3.50
2019-04-11T20:54:13.714Z,3.47
2019-04-11T20:56:43.123Z,3.40
2019-04-11T20:59:12.094Z,7.13
2019-04-11T21:01:41.169Z,7.33
2019-04-11T21:04:10.117Z,6.33
2019-04-11T21:06:39.087Z,6.13
2019-04-11T21:09:11.101Z,4.37
2019-04-11T21:11:39.976Z,4.33
2019-04-11T21:14:08.883Z,3.60
2019-04-11T21:16:37.768Z,4.90
2019-04-11T21:19:06.839Z,4.03
2019-04-11T21:21:35.735Z,4.00
2019-04-11T21:24:04.689Z,7.93
2019-04-11T21:26:33.517Z,4.13
2019-04-11T21:29:02.410Z,3.87
2019-04-11T21:31:31.785Z,5.80
2019-04-11T21:34:02.264Z,4.77
2019-04-11T21:36:31.716Z,4.77
2019-04-11T21:39:03.583Z,3.40
2019-04-11T21:41:36.108Z,3.80
2019-04-11T21:44:05.848Z,5.30
2019-04-11T21:46:37.320Z,4.23
2019-04-11T21:49:06.063Z,5.67
2019-04-11T21:51:34.180Z,4.80
2019-04-11T21:54:03.002Z,4.80
2019-04-11T21:56:31.842Z,3.83
2019-04-11T21:59:00.718Z,4.87
2019-04-11T22:01:30.070Z,4.33
2019-04-11T22:03:59.004Z,4.20
2019-04-11T22:06:30.320Z,3.60
2019-04-11T22:08:58.593Z,6.37
2019-04-11T22:11:27.666Z,5.13
2019-04-11T22:13:56.491Z,4.73
2019-04-11T22:16:25.373Z,5.13
2019-04-11T22:18:54.390Z,4.50
2019-04-11T22:21:23.254Z,6.53
2019-04-11T22:23:52.469Z,3.90
2019-04-11T22:26:21.570Z,3.70
2019-04-11T22:28:50.514Z,4.13
2019-04-11T22:31:19.528Z,3.70
2019-04-11T22:34:07.596Z,5.07
2019-04-11T22:36:36.527Z,4.20
2019-04-11T22:39:08.154Z,4.37
2019-04-11T22:41:37.177Z,4.27
2019-04-11T22:44:07.978Z,5.07
2019-04-11T22:46:37.804Z,4.40
2019-04-11T22:49:08.850Z,5.60
2019-04-11T22:51:42.746Z,3.83
2019-04-11T22:54:08.577Z,4.73
2019-04-11T22:56:37.439Z,4.93
2019-04-11T22:59:06.244Z,3.57
2019-04-11T23:01:35.336Z,4.00
2019-04-11T23:04:05.099Z,6.13
2019-04-11T23:06:33.996Z,5.03
2019-04-11T23:09:02.897Z,5.10
2019-04-11T23:11:31.822Z,5.30
2019-04-11T23:14:00.759Z,4.10
2019-04-11T23:16:29.700Z,6.53
2019-04-11T23:18:58.594Z,4.47
2019-04-11T23:21:27.554Z,4.10
2019-04-11T23:23:56.379Z,6.07
2019-04-11T23:26:25.315Z,5.37
2019-04-11T23:28:54.224Z,4.40
2019-04-11T23:31:23.084Z,6.63
2019-04-11T23:33:52.609Z,5.00
2019-04-11T23:36:21.976Z,9.00
2019-04-11T23:38:52.664Z,4.80
2019-04-11T23:41:21.654Z,4.30
2019-04-11T23:43:50.577Z,7.13
2019-04-11T23:46:21.396Z,5.17
2019-04-11T23:48:54.573Z,5.40
2019-04-11T23:51:25.499Z,4.80
2019-04-11T23:53:51.209Z,3.87
2019-04-11T23:56:20.048Z,3.50
2019-04-11T23:58:48.938Z,3.70
